Ardmore, SD

6:21 PM MDT on October 24, 2014 (GMT -0600)
Chadron Municipal | Change Station
CLOSE
Current Station
Airport
Location: Chadron,
Elevation: 3297 ft
Nearby Weather Stations

Elev 3297 ft 42.84 °N, 103.10 °W | Updated 28 minutes ago

Clear
Clear
70 °F
Feels Like 70 °F
N
5
Wind Variable Wind from NE

Today
High -- | Low -- °F
--% Chance of Precip.
Yesterday
High -- | Low -- °F
Precip. -- in
7:19 AM 5:57 PM
New Moon, 1% visible
Pressure 30.00 in
Visibility 10.0 miles
Clouds Clear
Dew Point 38 °F
Humidity 31%
Rainfall 0.00 in
Snow Depth Not available.
UV 0 out of 12
Pollen 2.50 out of 12
Air Quality Not available.
Flu Activity Sporadic
METAR KCDR 242353Z AUTO 05004KT 10SM CLR 21/03 A3001 RMK AO2 SLP158 T02110033 10256 20200 53008

More Conditions Fewer Conditions

Pressure 30.00 in
Visibility 10.0 miles
Clouds Clear
Dew Point 38 °F
Humidity 31%
Rainfall 0.00 in
Snow Depth Not available.
UV 0 out of 12
Pollen 2.50 out of 12
Air Quality Not available.
Flu Activity Sporadic
METAR KCDR 242353Z AUTO 05004KT 10SM CLR 21/03 A3001 RMK AO2 SLP158 T02110033 10256 20200 53008

More Conditions Fewer Conditions

10-Day Weather Forecast

Almanac

Astronomy

Oct. 24, 2014 Rise Set
Actual Time 7:19 AM MDT 5:57 PM MDT
Civil Twilight 6:50 AM MDT 6:26 PM MDT
Nautical Twilight 6:16 AM MDT 6:59 PM MDT
Astronomical Twilight 5:44 AM MDT 7:32 PM MDT
Moon 8:01 AM MDT (10/24) 6:38 PM MDT (10/24)
Length of Visible Light 11h 36m
Length of Day
10h 38m
Tomorrow will be 2m 44s shorter.
New Moon, 1% of the Moon is Illuminated
Today
New Moon
Oct 30
First Quarter
Nov 6
Full
Nov 14
Last Quarter
Nov 22
New

Today's Extremes

State Highs State Lows

Community

WunderPhotos

Upload Photos

1,764,727 photos uploaded!

WunderBlogs® & News

Nearby

Snow Depth

Station Depth Elevation
Blind Park 0 in 6890 ft
North Rapid Creek 0 in 6130 ft

Earthquake Activity

City Distance Mag. Time & Date
No recent earthquake activity has been reported nearby.
Minimum magnitude displayed is 2.5.

Coastal Water Temperatures

Place Temperature
No Stations Reporting

Nearby Weather Stations